Time;durP1;ratioP1;P1;durP2;ratioP2;P2;SDS_P1;SDS_P2;PMS_P1;PMS_P2;Temp;Humidity;BMP_temperature;BMP_pressure;BME280_temperature;BME280_humidity;BME280_pressure;Samples;Min_cycle;Max_cycle;Signal;HPM_P1;HPM_P2
2021/09/24 00:01:06;;;;;;;7.22;3.72;;;;;;;19.64;59.24;101649.00;4963797;28;124071;-65
2021/09/24 00:03:35;;;;;;;6.00;3.78;;;;;;;19.63;59.44;101645.44;4971754;28;124367;-65
2021/09/24 00:06:04;;;;;;;9.55;3.58;;;;;;;19.62;59.40;101646.41;4951103;28;113443;-65
2021/09/24 00:08:32;;;;;;;6.38;3.70;;;;;;;19.63;59.39;101653.50;4967200;28;114298;-65
2021/09/24 00:10:59;;;;;;;9.40;3.60;;;;;;;19.62;59.32;101646.41;4952691;28;124497;-65
2021/09/24 00:13:26;;;;;;;7.60;3.70;;;;;;;19.61;59.16;101644.69;4967468;28;123948;-65
2021/09/24 00:15:54;;;;;;;6.13;3.53;;;;;;;19.60;59.49;101647.50;4966369;28;114653;-65
2021/09/24 00:18:21;;;;;;;8.55;3.53;;;;;;;19.58;59.41;101636.84;4967016;28;113462;-65
2021/09/24 00:20:48;;;;;;;8.30;3.60;;;;;;;19.57;59.38;101636.94;4969228;28;124985;-65
2021/09/24 00:23:15;;;;;;;6.85;3.78;;;;;;;19.55;59.33;101639.75;4965019;28;123774;-65
2021/09/24 00:25:43;;;;;;;6.38;3.20;;;;;;;19.55;59.24;101639.75;4968110;28;115260;-65
2021/09/24 00:28:10;;;;;;;9.02;3.03;;;;;;;19.54;59.34;101643.41;4966187;28;114949;-65
2021/09/24 00:30:38;;;;;;;5.45;3.20;;;;;;;19.53;59.34;101641.66;4970613;28;124449;-64
2021/09/24 00:33:05;;;;;;;6.63;2.88;;;;;;;19.52;59.35;101639.97;4968373;28;124195;-64
2021/09/24 00:35:33;;;;;;;6.95;3.25;;;;;;;19.51;59.24;101643.59;4935662;28;113299;-64
2021/09/24 00:38:00;;;;;;;5.43;3.20;;;;;;;19.50;59.41;101647.28;4954513;28;113468;-64
2021/09/24 00:40:27;;;;;;;6.95;2.97;;;;;;;19.51;59.33;101638.22;4954795;28;123172;-65
2021/09/24 00:42:55;;;;;;;7.65;3.03;;;;;;;19.51;59.28;101638.22;4969160;28;124482;-65
2021/09/24 00:45:22;;;;;;;6.60;2.50;;;;;;;19.50;59.25;101636.53;4966575;28;115093;-64
2021/09/24 00:47:51;;;;;;;7.32;2.83;;;;;;;19.50;59.41;101631.16;4969383;28;113997;-65
2021/09/24 00:50:18;;;;;;;7.95;3.22;;;;;;;19.49;59.25;101633.94;4950863;28;124411;-65
2021/09/24 00:52:52;;;;;;;7.82;2.63;;;;;;;19.47;59.44;101631.34;4969933;28;124637;-65
2021/09/24 00:55:21;;;;;;;4.57;2.53;;;;;;;19.44;59.25;101628.91;4967233;28;114656;-65
2021/09/24 00:57:49;;;;;;;6.20;2.72;;;;;;;19.45;59.27;101625.25;4955733;28;113214;-65
2021/09/24 01:00:16;;;;;;;7.10;2.80;;;;;;;19.45;59.18;101628.78;4968514;28;124029;-65
2021/09/24 01:02:44;;;;;;;6.65;2.70;;;;;;;19.44;59.35;101618.16;4968578;28;124002;-65
2021/09/24 01:05:12;;;;;;;5.75;2.50;;;;;;;19.44;59.14;101615.47;4953318;28;114321;-65
2021/09/24 01:07:41;;;;;;;7.03;2.40;;;;;;;19.44;59.40;101610.09;4951424;28;113053;-65
2021/09/24 01:10:10;;;;;;;5.25;2.25;;;;;;;19.43;59.22;101619.13;4968519;28;124223;-64
2021/09/24 01:12:38;;;;;;;6.68;2.53;;;;;;;19.42;59.23;101617.38;4965898;28;124311;-64
2021/09/24 01:15:09;;;;;;;4.60;2.30;;;;;;;19.40;59.22;101608.56;4971066;28;115299;-64
2021/09/24 01:17:37;;;;;;;5.45;2.70;;;;;;;19.40;59.37;101608.56;4966626;28;115006;-65
2021/09/24 01:20:07;;;;;;;6.03;2.80;;;;;;;19.39;59.36;101606.88;4960534;28;124016;-65
2021/09/24 01:22:35;;;;;;;5.35;2.40;;;;;;;19.39;59.13;101606.88;4953481;28;122852;-65
2021/09/24 01:25:04;;;;;;;5.25;2.58;;;;;;;19.39;59.39;101609.56;4965943;28;114216;-65
2021/09/24 01:27:32;;;;;;;5.38;2.70;;;;;;;19.39;59.18;101606.88;4969331;28;113989;-65
2021/09/24 01:29:59;;;;;;;4.88;2.38;;;;;;;19.38;59.29;101610.50;4961756;28;123978;-65
2021/09/24 01:32:27;;;;;;;5.53;2.95;;;;;;;19.38;59.45;101605.13;4965516;28;123882;-66
2021/09/24 01:34:54;;;;;;;6.70;3.13;;;;;;;19.37;59.32;101606.13;4965850;28;114526;-66
2021/09/24 01:37:22;;;;;;;6.80;3.50;;;;;;;19.37;59.35;101608.81;4970217;28;113840;-65
2021/09/24 01:39:49;;;;;;;9.73;4.40;;;;;;;19.35;59.36;101610.75;4968327;28;124832;-65
2021/09/24 01:42:16;;;;;;;6.13;3.88;;;;;;;19.35;59.53;101608.06;4968061;28;123858;-65
2021/09/24 01:44:43;;;;;;;6.65;3.60;;;;;;;19.35;59.63;101610.75;4963254;28;114856;-65
2021/09/24 01:47:10;;;;;;;9.75;4.70;;;;;;;19.35;59.70;101610.75;4969667;28;114147;-65
2021/09/24 01:49:37;;;;;;;8.07;4.90;;;;;;;19.36;59.67;101601.72;4966072;28;124082;-65
2021/09/24 01:52:05;;;;;;;8.90;4.78;;;;;;;19.38;59.78;101611.41;4968559;28;123992;-66
2021/09/24 01:54:32;;;;;;;10.25;4.80;;;;;;;19.38;59.62;101600.66;4968697;28;114589;-65
2021/09/24 01:56:59;;;;;;;7.97;5.55;;;;;;;19.40;59.77;101597.81;4971158;28;114208;-65
2021/09/24 01:59:26;;;;;;;9.43;6.00;;;;;;;19.40;59.75;101603.19;4965338;28;123942;-65
2021/09/24 02:01:54;;;;;;;10.85;6.03;;;;;;;19.41;59.83;101588.81;4950789;28;123816;-65
2021/09/24 02:04:21;;;;;;;12.52;6.75;;;;;;;19.40;59.84;101587.09;4951891;28;115893;-65
2021/09/24 02:06:48;;;;;;;13.55;6.63;;;;;;;19.40;59.80;101587.09;4968639;28;114916;-65
2021/09/24 02:09:15;;;;;;;11.98;6.97;;;;;;;19.42;59.97;101593.19;4970055;28;123891;-65
2021/09/24 02:11:43;;;;;;;11.20;7.38;;;;;;;19.42;60.04;101590.53;4967341;28;123847;-66
2021/09/24 02:14:10;;;;;;;10.60;7.15;;;;;;;19.42;59.82;101586.03;4967409;28;114656;-64
2021/09/24 02:16:37;;;;;;;13.82;7.55;;;;;;;19.43;59.97;101582.34;4971058;28;113898;-64
2021/09/24 02:19:04;;;;;;;11.50;7.90;;;;;;;19.44;60.00;101583.25;4965054;28;124910;-63
2021/09/24 02:21:32;;;;;;;12.50;8.65;;;;;;;19.43;60.14;101581.50;4965513;28;123691;-63
2021/09/24 02:23:59;;;;;;;15.05;8.38;;;;;;;19.45;60.15;101590.31;4970925;28;114208;-63
2021/09/24 02:26:27;;;;;;;13.90;8.43;;;;;;;19.43;60.22;101581.50;4967515;28;114003;-64
2021/09/24 02:29:09;;;;;;;13.27;8.05;;;;;;;19.43;60.11;101589.56;4951826;28;123780;-63
2021/09/24 02:31:37;;;;;;;15.98;8.90;;;;;;;19.42;60.41;101585.16;4956474;28;124654;-64
2021/09/24 02:34:04;;;;;;;16.83;9.35;;;;;;;19.42;60.17;101590.53;4962712;28;114535;-63
2021/09/24 02:36:31;;;;;;;16.75;9.10;;;;;;;19.40;60.36;101587.97;4969930;28;114093;-63
2021/09/24 02:38:59;;;;;;;14.57;9.02;;;;;;;19.41;60.31;101576.22;4962363;28;124070;-64
2021/09/24 02:41:26;;;;;;;15.45;9.68;;;;;;;19.42;60.45;101574.41;4959933;28;123765;-63
2021/09/24 02:43:53;;;;;;;16.27;9.88;;;;;;;19.40;60.51;101571.84;4966729;28;114155;-64
2021/09/24 02:46:20;;;;;;;18.35;9.88;;;;;;;19.40;60.43;101573.66;4969161;28;113975;-64
2021/09/24 02:48:47;;;;;;;14.55;9.65;;;;;;;19.41;60.48;101575.38;4967000;28;124297;-64
2021/09/24 02:51:15;;;;;;;18.42;10.65;;;;;;;19.38;60.39;101563.03;4971039;28;124672;-64
2021/09/24 02:53:42;;;;;;;16.52;10.35;;;;;;;19.38;60.46;101563.03;4967674;28;115970;-64
2021/09/24 02:56:09;;;;;;;18.70;10.07;;;;;;;19.39;60.72;101569.25;4973091;28;115779;-64
2021/09/24 02:58:36;;;;;;;19.50;11.23;;;;;;;19.39;60.69;101563.88;4966159;28;124918;-63
2021/09/24 03:01:03;;;;;;;18.60;11.02;;;;;;;19.38;60.62;101562.16;4971734;28;122811;-63
2021/09/24 03:03:31;;;;;;;21.58;12.05;;;;;;;19.38;60.60;101572.91;4955674;28;113576;-63
2021/09/24 03:05:58;;;;;;;19.75;11.13;;;;;;;19.37;60.68;101560.47;4969516;28;113650;-63
2021/09/24 03:08:25;;;;;;;26.70;12.75;;;;;;;19.37;60.82;101571.19;4965974;28;124129;-63
2021/09/24 03:10:52;;;;;;;24.98;12.25;;;;;;;19.37;60.92;101560.47;4969404;28;123780;-63
2021/09/24 03:13:20;;;;;;;27.58;13.63;;;;;;;19.36;60.88;101561.41;4970885;28;114088;-63
2021/09/24 03:15:47;;;;;;;26.50;13.98;;;;;;;19.37;60.98;101571.19;4968816;28;114483;-63
2021/09/24 03:18:14;;;;;;;29.40;14.70;;;;;;;19.35;61.13;101567.78;4949547;28;123826;-63
2021/09/24 03:20:41;;;;;;;28.95;14.18;;;;;;;19.36;61.25;101572.16;4964102;28;123935;-63
2021/09/24 03:23:08;;;;;;;34.28;15.05;;;;;;;19.39;61.39;101574.63;4968898;28;114182;-63
2021/09/24 03:25:35;;;;;;;35.33;15.35;;;;;;;19.38;61.29;101572.91;4972034;28;114714;-63
2021/09/24 03:28:03;;;;;;;36.28;15.60;;;;;;;19.41;61.48;101561.94;4969533;28;124007;-63
2021/09/24 03:30:30;;;;;;;36.78;16.20;;;;;;;19.42;61.52;101559.16;4966853;28;123783;-63
2021/09/24 03:32:57;;;;;;;38.70;16.25;;;;;;;19.42;61.50;101560.97;4965789;28;114131;-63
2021/09/24 03:35:24;;;;;;;34.88;16.80;;;;;;;19.44;61.53;101561.75;4971656;28;113565;-63
2021/09/24 03:37:51;;;;;;;41.42;17.10;;;;;;;19.44;61.78;101567.13;4970024;28;124449;-63
2021/09/24 03:40:19;;;;;;;44.30;18.27;;;;;;;19.44;61.69;101564.44;4968494;28;125269;-63
2021/09/24 03:42:46;;;;;;;45.95;17.85;;;;;;;19.44;61.93;101561.75;4966199;28;115820;-63
2021/09/24 03:45:13;;;;;;;44.47;17.92;;;;;;;19.45;61.95;101558.91;4972804;28;115042;-64
2021/09/24 03:47:41;;;;;;;44.78;18.52;;;;;;;19.45;62.01;101568.81;4967142;28;124601;-63
2021/09/24 03:50:09;;;;;;;45.65;18.77;;;;;;;19.47;61.83;101566.03;4968584;28;123845;-63
2021/09/24 03:52:36;;;;;;;46.28;19.42;;;;;;;19.47;62.14;101566.88;4965600;28;114093;-63
2021/09/24 03:55:04;;;;;;;54.53;20.45;;;;;;;19.48;62.19;101565.94;4970509;28;114615;-64
2021/09/24 03:57:31;;;;;;;50.00;19.77;;;;;;;19.50;62.12;101560.44;4972391;28;124478;-64
2021/09/24 03:59:58;;;;;;;45.40;20.77;;;;;;;19.50;62.23;101569.34;4972110;28;124056;-64
2021/09/24 04:02:25;;;;;;;48.22;20.27;;;;;;;19.53;62.08;101565.59;4969940;28;114530;-64
2021/09/24 04:04:53;;;;;;;52.72;21.00;;;;;;;19.54;62.07;101568.16;4968597;28;113911;-64
2021/09/24 04:07:20;;;;;;;52.65;21.02;;;;;;;19.56;62.20;101560.00;4966661;28;124184;-64
2021/09/24 04:09:50;;;;;;;57.08;22.17;;;;;;;19.55;62.13;101559.16;4968922;28;124596;-64
2021/09/24 04:12:17;;;;;;;47.75;20.92;;;;;;;19.55;62.18;101559.16;4970005;28;114633;-64
2021/09/24 04:14:44;;;;;;;57.47;21.48;;;;;;;19.56;62.37;101560.84;4968911;28;114245;-64
2021/09/24 04:17:11;;;;;;;55.08;21.67;;;;;;;19.55;62.40;101567.22;4968213;28;124535;-63
2021/09/24 04:19:38;;;;;;;58.03;22.33;;;;;;;19.55;62.48;101559.16;4966195;28;124517;-63
2021/09/24 04:22:06;;;;;;;58.53;21.67;;;;;;;19.56;62.49;101560.00;4948086;28;113113;-64
2021/09/24 04:24:33;;;;;;;52.78;21.42;;;;;;;19.55;62.36;101553.78;4969814;28;114038;-64
2021/09/24 04:27:00;;;;;;;50.40;21.50;;;;;;;19.55;62.50;101553.78;4969563;28;124708;-64
2021/09/24 04:29:27;;;;;;;51.67;21.35;;;;;;;19.54;62.47;101557.41;4966504;28;123853;-64
2021/09/24 04:31:54;;;;;;;56.42;22.20;;;;;;;19.54;62.48;101557.41;4969464;28;115348;-64
2021/09/24 04:34:22;;;;;;;58.00;23.05;;;;;;;19.54;62.64;101557.41;4968920;28;115104;-64
2021/09/24 04:36:49;;;;;;;58.00;23.02;;;;;;;19.54;62.59;101562.78;4969254;28;123556;-64
2021/09/24 04:39:16;;;;;;;58.15;21.98;;;;;;;19.54;62.58;101564.63;4971156;28;124648;-63
2021/09/24 04:41:43;;;;;;;58.55;23.10;;;;;;;19.54;62.82;101561.94;4965038;28;114634;-63
2021/09/24 04:44:10;;;;;;;55.58;21.15;;;;;;;19.54;62.66;101562.78;4970380;28;114116;-63
2021/09/24 04:46:37;;;;;;;57.17;22.38;;;;;;;19.55;62.62;101564.53;4968804;28;124220;-63
2021/09/24 04:49:04;;;;;;;57.22;22.42;;;;;;;19.54;62.77;101565.47;4969986;28;124956;-63
2021/09/24 04:51:32;;;;;;;55.35;22.38;;;;;;;19.54;62.84;101562.78;4969277;28;114606;-63
2021/09/24 04:53:59;;;;;;;55.35;21.90;;;;;;;19.55;62.76;101569.03;4969127;28;114095;-63
2021/09/24 04:56:26;;;;;;;55.28;22.80;;;;;;;19.54;62.94;101573.53;4965654;28;123850;-63
2021/09/24 04:58:53;;;;;;;53.55;22.80;;;;;;;19.52;62.83;101570.09;4968313;28;123949;-64
2021/09/24 05:01:20;;;;;;;59.35;22.80;;;;;;;19.52;62.82;101574.63;4969510;28;114867;-63
2021/09/24 05:03:47;;;;;;;54.60;22.58;;;;;;;19.52;62.89;101575.47;4969221;28;114337;-63
2021/09/24 05:06:14;;;;;;;51.33;22.52;;;;;;;19.54;62.95;101572.69;4965596;28;124451;-63
2021/09/24 05:08:42;;;;;;;57.22;23.30;;;;;;;19.53;62.95;101571.81;4962878;28;123769;-63
2021/09/24 05:11:10;;;;;;;56.08;23.30;;;;;;;19.52;62.95;101580.84;4970391;28;114583;-64
2021/09/24 05:13:37;;;;;;;61.58;23.42;;;;;;;19.50;62.84;101572.06;4965935;28;114070;-63
2021/09/24 05:16:04;;;;;;;53.60;22.60;;;;;;;19.50;62.97;101574.72;4967068;28;124340;-63
2021/09/24 05:18:31;;;;;;;56.38;24.15;;;;;;;19.51;62.86;101575.59;4963687;28;124741;-63
2021/09/24 05:20:59;;;;;;;54.88;22.92;;;;;;;19.51;62.88;101576.44;4965866;28;116792;-63
2021/09/24 05:23:26;;;;;;;52.05;22.60;;;;;;;19.51;63.25;101584.50;4971680;28;114469;-63
2021/09/24 05:25:53;;;;;;;57.42;22.60;;;;;;;19.50;63.08;101576.56;4968003;28;124701;-64
2021/09/24 05:28:20;;;;;;;58.15;21.83;;;;;;;19.50;63.12;101577.41;4965021;28;124537;-63
2021/09/24 05:30:47;;;;;;;56.42;22.98;;;;;;;19.50;62.99;101582.78;4961094;28;114978;-63
2021/09/24 05:33:14;;;;;;;50.38;22.02;;;;;;;19.49;63.06;101581.06;4965652;28;114346;-63
2021/09/24 05:35:42;;;;;;;54.63;21.92;;;;;;;19.48;63.06;101590.09;4970614;28;125762;-62
2021/09/24 05:38:09;;;;;;;54.33;21.60;;;;;;;19.48;62.99;101589.22;4967783;28;124649;-62
2021/09/24 05:40:37;;;;;;;53.55;21.60;;;;;;;19.48;63.05;101590.09;4966952;28;114419;-63
2021/09/24 05:43:04;;;;;;;50.00;21.60;;;;;;;19.48;63.01;101584.75;4971061;28;114288;-63
2021/09/24 05:45:31;;;;;;;55.55;22.17;;;;;;;19.48;63.19;101573.09;4956028;28;124473;-62
2021/09/24 05:47:58;;;;;;;52.80;22.48;;;;;;;19.48;63.07;101584.75;4948505;28;124169;-62
2021/09/24 05:50:26;;;;;;;58.97;23.08;;;;;;;19.48;63.14;101579.38;4951399;28;114025;-63
2021/09/24 05:52:54;;;;;;;60.38;23.20;;;;;;;19.49;63.18;101581.06;4966932;28;114079;-63
2021/09/24 05:55:23;;;;;;;58.22;22.63;;;;;;;19.50;63.18;101577.41;4954705;28;124467;-63
2021/09/24 05:57:51;;;;;;;56.25;21.75;;;;;;;19.49;63.21;101575.69;4970019;28;124485;-65
2021/09/24 06:00:20;;;;;;;60.65;21.38;;;;;;;19.49;63.17;101575.69;4968981;28;114642;-65
2021/09/24 06:02:50;;;;;;;52.10;20.67;;;;;;;19.48;63.17;101579.38;4962051;28;114344;-64
2021/09/24 06:05:18;;;;;;;56.00;19.88;;;;;;;19.45;63.11;101568.81;4969615;28;124070;-65
2021/09/24 06:07:45;;;;;;;58.15;19.88;;;;;;;19.44;63.17;101572.50;4968612;28;124266;-66
2021/09/24 06:10:15;;;;;;;49.17;18.70;;;;;;;19.45;63.27;101574.19;4967878;28;116416;-66
2021/09/24 06:12:45;;;;;;;47.88;17.75;;;;;;;19.46;63.23;101573.25;4970755;28;115063;-65
2021/09/24 06:15:13;;;;;;;47.28;18.08;;;;;;;19.44;63.11;101577.88;4961429;28;124078;-65
2021/09/24 06:17:40;;;;;;;42.85;16.70;;;;;;;19.42;63.14;101585.16;4970867;28;124203;-65
2021/09/24 06:20:08;;;;;;;43.92;16.50;;;;;;;19.41;63.28;101580.75;4969527;28;114376;-64
2021/09/24 06:22:35;;;;;;;42.53;16.33;;;;;;;19.41;63.30;101578.06;4971253;28;114624;-64
2021/09/24 06:25:04;;;;;;;38.80;15.40;;;;;;;19.41;63.51;101567.31;4970766;28;124064;-62
2021/09/24 06:27:32;;;;;;;34.70;14.43;;;;;;;19.41;63.27;101578.06;4975727;28;123787;-62
2021/09/24 06:29:59;;;;;;;36.05;14.35;;;;;;;19.41;63.51;101567.31;4971398;28;114538;-62
2021/09/24 06:32:26;;;;;;;32.88;13.48;;;;;;;19.42;63.29;101574.41;4971137;28;114611;-62
2021/09/24 06:34:54;;;;;;;31.95;13.25;;;;;;;19.42;63.58;101572.59;4977416;28;123982;-62
2021/09/24 06:37:21;;;;;;;35.10;14.05;;;;;;;19.42;63.32;101574.41;4971674;28;124171;-62
2021/09/24 06:39:48;;;;;;;30.38;13.13;;;;;;;19.43;63.43;101581.50;4950239;28;113672;-62
2021/09/24 06:42:16;;;;;;;32.28;13.13;;;;;;;19.41;63.39;101572.69;4973163;28;113266;-62
2021/09/24 06:44:44;;;;;;;31.00;12.95;;;;;;;19.40;63.50;101568.28;4951650;28;124190;-62
2021/09/24 06:47:12;;;;;;;31.95;13.02;;;;;;;19.42;63.61;101574.41;4967794;28;123885;-62
2021/09/24 06:49:40;;;;;;;29.42;12.40;;;;;;;19.43;63.64;101573.44;4968190;28;114133;-62
2021/09/24 06:52:11;;;;;;;29.52;12.77;;;;;;;19.45;63.78;101574.19;4973006;28;114088;-62
2021/09/24 06:54:43;;;;;;;30.50;11.32;;;;;;;19.46;63.53;101570.56;4966616;28;124258;-63
2021/09/24 06:57:10;;;;;;;27.67;12.27;;;;;;;19.49;63.75;101569.47;4955774;28;124141;-63
2021/09/24 06:59:37;;;;;;;29.85;12.52;;;;;;;19.50;63.72;101572.06;4965825;28;115780;-63
2021/09/24 07:02:05;;;;;;;26.00;11.85;;;;;;;19.51;63.59;101573.75;4967480;28;114865;-62
2021/09/24 07:04:33;;;;;;;27.17;12.18;;;;;;;19.52;63.50;101570.09;4971318;28;123864;-62
2021/09/24 07:07:00;;;;;;;27.70;12.20;;;;;;;19.52;63.51;101570.09;4964934;28;123983;-64
2021/09/24 07:09:27;;;;;;;26.42;12.30;;;;;;;19.52;63.61;101570.09;4963595;28;114359;-64
2021/09/24 07:11:54;;;;;;;25.75;12.32;;;;;;;19.54;63.66;101576.22;4961823;28;114398;-64
2021/09/24 07:14:22;;;;;;;27.60;12.52;;;;;;;19.57;63.69;101578.72;4982455;28;124802;-62
2021/09/24 07:16:49;;;;;;;28.90;12.75;;;;;;;19.60;63.70;101575.78;4974919;28;123731;-62
2021/09/24 07:19:17;;;;;;;30.10;12.57;;;;;;;19.61;63.58;101580.19;4974382;28;113978;-62
2021/09/24 07:21:44;;;;;;;31.08;12.60;;;;;;;19.62;63.60;101573.84;4969323;28;114717;-62
2021/09/24 07:24:11;;;;;;;28.30;12.80;;;;;;;19.63;63.80;101583.63;4977945;28;123941;-62
2021/09/24 07:26:38;;;;;;;29.40;12.82;;;;;;;19.64;63.62;101582.66;4947624;28;123588;-62
2021/09/24 07:29:06;;;;;;;25.85;12.35;;;;;;;19.65;63.60;101581.69;4949119;28;113353;-64
2021/09/24 07:31:33;;;;;;;31.02;13.43;;;;;;;19.67;63.85;101578.06;4971228;28;114128;-64
2021/09/24 07:34:00;;;;;;;33.83;13.75;;;;;;;19.70;63.95;101583.19;4964725;28;123884;-64
2021/09/24 07:36:28;;;;;;;30.45;13.93;;;;;;;19.72;63.77;101575.88;4973174;28;124407;-64
2021/09/24 07:38:55;;;;;;;30.25;13.52;;;;;;;19.72;63.87;101581.25;4971219;28;114237;-64
2021/09/24 07:41:25;;;;;;;31.30;13.48;;;;;;;19.75;63.91;101575.69;4967971;28;114540;-64
2021/09/24 07:43:53;;;;;;;30.15;13.18;;;;;;;19.78;64.07;101580.88;4956229;28;124125;-64
2021/09/24 07:46:21;;;;;;;30.45;13.45;;;;;;;19.82;63.96;101582.34;4955229;28;123800;-63
2021/09/24 07:48:49;;;;;;;33.42;14.65;;;;;;;19.87;63.98;101580.16;4964819;28;115109;-63
2021/09/24 07:51:16;;;;;;;32.38;13.82;;;;;;;19.90;64.07;101574.56;4960575;28;116194;-64
2021/09/24 07:53:44;;;;;;;31.95;13.90;;;;;;;19.96;64.01;101584.88;4967318;28;123839;-64
2021/09/24 07:56:11;;;;;;;33.42;14.27;;;;;;;19.99;64.06;101579.28;4963413;28;124525;-64
2021/09/24 07:58:39;;;;;;;32.10;14.43;;;;;;;20.05;63.90;101582.50;4966050;28;115423;-64
2021/09/24 08:01:11;;;;;;;29.30;13.43;;;;;;;20.09;63.79;101578.63;4963546;28;113932;-64
2021/09/24 08:03:38;;;;;;;30.88;13.43;;;;;;;20.12;63.88;101578.41;4960601;28;123836;-64
2021/09/24 08:06:06;;;;;;;34.03;14.73;;;;;;;20.16;63.71;101579.88;4972301;28;124070;-65
2021/09/24 08:08:33;;;;;;;36.00;14.65;;;;;;;20.20;63.79;101581.38;4970225;28;113970;-65
2021/09/24 08:11:01;;;;;;;32.25;14.55;;;;;;;20.26;63.69;101586.28;4967641;28;113945;-65
2021/09/24 08:13:28;;;;;;;30.08;14.27;;;;;;;20.31;63.66;101586.81;4961163;28;122943;-65
2021/09/24 08:15:56;;;;;;;32.90;14.45;;;;;;;20.36;63.72;101586.44;4971811;28;124092;-65
2021/09/24 08:18:23;;;;;;;33.95;14.75;;;;;;;20.40;63.48;101586.13;4970223;28;114441;-66
2021/09/24 08:20:51;;;;;;;32.55;14.73;;;;;;;20.45;63.57;101588.47;4967280;28;114639;-66
2021/09/24 08:23:19;;;;;;;31.73;14.25;;;;;;;20.51;63.48;101595.22;4965055;28;124101;-65
2021/09/24 08:25:46;;;;;;;33.63;14.63;;;;;;;20.54;63.21;101590.47;4970252;28;123938;-65
2021/09/24 08:28:14;;;;;;;29.98;14.00;;;;;;;20.60;63.35;101595.41;4969440;28;114604;-65
2021/09/24 08:30:41;;;;;;;30.27;13.82;;;;;;;20.64;63.22;101593.34;4968384;28;114252;-65
2021/09/24 08:33:08;;;;;;;29.75;13.98;;;;;;;20.71;63.25;101591.91;4967859;28;124757;-65
2021/09/24 08:35:36;;;;;;;30.90;15.20;;;;;;;20.79;63.23;101594.91;4971295;28;123853;-65
2021/09/24 08:38:03;;;;;;;30.77;15.20;;;;;;;20.86;63.06;101594.41;4969693;28;115574;-65
2021/09/24 08:40:33;;;;;;;32.03;15.75;;;;;;;20.93;62.77;101606.44;4971923;28;115016;-65
2021/09/24 08:43:01;;;;;;;30.38;15.40;;;;;;;20.96;62.57;101608.88;4970592;28;124796;-65
2021/09/24 08:45:30;;;;;;;34.33;15.75;;;;;;;21.00;62.46;101607.66;4970135;28;124245;-65
2021/09/24 08:48:08;;;;;;;33.22;15.48;;;;;;;21.03;62.43;101602.03;4970156;28;114100;-65
2021/09/24 08:50:38;;;;;;;30.75;14.75;;;;;;;21.10;62.24;101608.69;4970919;28;114343;-65
2021/09/24 08:53:07;;;;;;;30.92;15.70;;;;;;;21.15;62.21;101598.41;4963945;28;124029;-64
2021/09/24 08:55:35;;;;;;;33.28;15.48;;;;;;;21.19;62.22;101602.59;4970880;28;124397;-64
2021/09/24 08:58:03;;;;;;;29.52;15.70;;;;;;;21.28;62.16;101600.13;4959795;28;114057;-65
2021/09/24 09:00:32;;;;;;;30.50;15.40;;;;;;;21.33;61.92;101598.78;4970732;28;114584;-64
2021/09/24 09:03:08;;;;;;;32.30;16.08;;;;;;;21.41;61.86;101595.50;4971394;28;125238;-65
2021/09/24 09:05:47;;;;;;;28.40;14.73;;;;;;;21.47;61.69;101599.56;4967495;28;123075;-64
2021/09/24 09:08:23;;;;;;;31.38;15.40;;;;;;;21.51;61.55;101591.13;4966153;28;114582;-64
2021/09/24 09:10:56;;;;;;;31.85;15.60;;;;;;;21.57;61.46;101593.34;4949324;28;114386;-64
2021/09/24 09:13:28;;;;;;;30.30;15.98;;;;;;;21.64;61.17;101584.75;4962034;28;124525;-64
2021/09/24 09:16:18;;;;;;;30.23;15.57;;;;;;;21.71;61.40;101592.22;4966675;28;123993;-64
2021/09/24 09:18:48;;;;;;;30.65;15.93;;;;;;;21.79;61.14;101588.91;4971664;28;115000;-64
2021/09/24 09:21:21;;;;;;;26.08;14.75;;;;;;;21.84;60.97;101586.69;4965983;28;113952;-64
2021/09/24 09:23:52;;;;;;;31.43;15.87;;;;;;;21.88;60.95;101588.16;4966501;28;124656;-64
2021/09/24 09:26:20;;;;;;;30.30;15.63;;;;;;;21.93;60.89;101591.34;4970928;28;124231;-65
2021/09/24 09:28:56;;;;;;;29.67;15.73;;;;;;;22.00;60.64;101588.16;4954035;28;115214;-64
2021/09/24 09:31:32;;;;;;;28.98;16.33;;;;;;;22.04;60.46;101585.09;4969780;28;114913;-65
2021/09/24 09:34:02;;;;;;;26.58;15.48;;;;;;;22.07;60.03;101587.50;4963726;28;124278;-66
2021/09/24 09:36:33;;;;;;;28.55;16.33;;;;;;;22.09;60.06;101579.28;4958254;28;124052;-65
2021/09/24 09:39:08;;;;;;;30.88;15.80;;;;;;;22.10;59.98;101581.03;4951894;28;114413;-64
2021/09/24 09:41:35;;;;;;;27.40;15.45;;;;;;;22.14;59.77;101577.09;4968467;28;114816;-65
2021/09/24 09:44:02;;;;;;;29.55;15.55;;;;;;;22.14;59.85;101572.53;4968854;28;124096;-65
2021/09/24 09:46:34;;;;;;;28.02;16.30;;;;;;;22.20;59.85;101581.97;4961066;28;124000;-65
2021/09/24 09:49:09;;;;;;;28.35;15.77;;;;;;;22.25;59.62;101577.09;4965823;28;114641;-65
2021/09/24 09:51:39;;;;;;;29.38;15.18;;;;;;;22.28;59.51;101584.94;4945851;28;114071;-65
2021/09/24 09:54:09;;;;;;;24.52;15.18;;;;;;;22.31;59.23;101576.56;4965093;28;124050;-65
2021/09/24 09:56:39;;;;;;;29.77;15.13;;;;;;;22.35;59.17;101575.31;4970726;28;123922;-65
2021/09/24 09:59:29;;;;;;;28.23;15.43;;;;;;;22.40;59.38;101576.81;4960950;28;114798;-65
2021/09/24 10:02:29;;;;;;;28.10;15.57;;;;;;;22.44;59.17;101572.88;4966187;28;114119;-65
2021/09/24 10:04:58;;;;;;;26.10;15.20;;;;;;;22.48;59.02;101574.31;4965281;28;123619;-65
2021/09/24 10:07:35;;;;;;;27.63;15.30;;;;;;;22.50;58.80;101580.44;4953260;28;124202;-65
2021/09/24 10:10:12;;;;;;;28.73;15.35;;;;;;;22.51;58.72;101569.50;4970944;28;114572;-65
2021/09/24 10:12:41;;;;;;;25.75;15.43;;;;;;;22.55;58.49;101575.50;4968191;28;114292;-66
2021/09/24 10:15:11;;;;;;;26.55;14.93;;;;;;;22.58;58.54;101575.25;4966996;28;125062;-65
2021/09/24 10:17:39;;;;;;;25.13;15.27;;;;;;;22.62;58.47;101576.72;4968766;28;123829;-65
2021/09/24 10:20:09;;;;;;;28.60;16.20;;;;;;;22.65;58.31;101576.44;4972234;28;115423;-65
2021/09/24 10:22:36;;;;;;;25.13;14.63;;;;;;;22.68;58.15;101570.78;4963345;28;115197;-65
2021/09/24 10:25:04;;;;;;;23.90;14.25;;;;;;;22.69;58.16;101572.47;4976897;28;124876;-65
2021/09/24 10:27:35;;;;;;;24.88;14.57;;;;;;;22.69;58.00;101567.09;4975046;28;124260;-65
2021/09/24 10:30:25;;;;;;;26.55;15.27;;;;;;;22.67;58.02;101563.66;4971912;28;114153;-65
2021/09/24 10:33:00;;;;;;;26.42;15.05;;;;;;;22.70;57.75;101558.00;4965317;28;114119;-65
2021/09/24 10:35:50;;;;;;;21.55;13.90;;;;;;;22.71;57.72;101573.22;4974526;28;123896;-65
2021/09/24 10:38:23;;;;;;;29.30;14.88;;;;;;;22.73;57.61;101568.56;4969624;28;124433;-65
2021/09/24 10:41:02;;;;;;;25.02;14.73;;;;;;;22.72;57.54;101556.03;4972532;28;114262;-65
2021/09/24 10:43:45;;;;;;;23.65;14.30;;;;;;;22.73;57.43;101552.34;4973104;28;114023;-65
2021/09/24 10:46:35;;;;;;;22.58;14.30;;;;;;;22.73;57.33;101557.75;4974591;28;124686;-65
2021/09/24 10:49:16;;;;;;;22.02;14.18;;;;;;;22.76;57.35;101562.03;4954480;28;124106;-65
2021/09/24 10:52:05;;;;;;;19.85;13.57;;;;;;;22.78;57.16;101548.41;4967689;28;114161;-65
2021/09/24 10:54:33;;;;;;;22.00;14.30;;;;;;;22.78;57.13;101559.22;4973290;28;113883;-64
2021/09/24 10:57:05;;;;;;;22.40;14.45;;;;;;;22.80;57.01;101546.41;4967059;28;123904;-64
2021/09/24 10:59:35;;;;;;;19.95;13.02;;;;;;;22.81;57.02;101546.28;4955354;28;123510;-65
2021/09/24 11:02:42;;;;;;;23.80;14.48;;;;;;;22.83;57.09;101535.34;4969464;28;114072;-65
2021/09/24 11:05:10;;;;;;;22.35;13.98;;;;;;;22.89;56.81;101545.63;4952125;28;113873;-65
2021/09/24 11:07:38;;;;;;;21.77;13.77;;;;;;;22.91;56.85;101543.66;4970918;28;124885;-65
2021/09/24 11:10:05;;;;;;;20.30;12.98;;;;;;;22.93;56.69;101547.06;4957478;28;124639;-64
2021/09/24 11:12:33;;;;;;;20.27;13.45;;;;;;;22.91;56.73;101544.50;4968641;28;115021;-64